This is the latest recevied weather packets stored in our database for station/object W6ORV. If no packets are shown the sender has not sent any weather packets the latest 10 day(s).
| Time | Temp. | Humidity | Pressure | Rain* | Wind** | Luminosity | Snow |
|---|---|---|---|---|---|---|---|
| 1778111840 | 27.78° C | 39% | 4300.6 hPa | 0 mm | - | 430 W/m² | - |
| 1778111535 | 27.78° C | 38% | 4300.5 hPa | 0 mm | - | 433 W/m² | - |
| 1778111232 | 26.67° C | 40% | 4300.5 hPa | 0 mm | - | 470 W/m² | - |
| 1778110930 | 26.67° C | 41% | 4300.6 hPa | 0 mm | - | 478 W/m² | - |
| 1778110627 | 27.78° C | 40% | 4300.6 hPa | 0 mm | - | 494 W/m² | - |
| 1778110323 | 28.89° C | 38% | 4300.7 hPa | 0 mm | - | 514 W/m² | - |
| 1778110020 | 27.78° C | 38% | 4300.5 hPa | 0 mm | - | 480 W/m² | - |
| 1778109714 | 29.44° C | 36% | 4300.5 hPa | 0 mm | - | 556 W/m² | - |
| 1778109412 | 28.89° C | 37% | 4300.6 hPa | 0 mm | - | 570 W/m² | - |
| 1778109111 | 26.67° C | 40% | 4300.8 hPa | 0 mm | - | 578 W/m² | - |
| 1778108807 | 26.67° C | 42% | 4301 hPa | 0 mm | - | 587 W/m² | - |
| 1778108504 | 27.78° C | 37% | 4301 hPa | 0 mm | - | 579 W/m² | - |
| 1778108200 | 27.78° C | 40% | 4300.8 hPa | 0 mm | - | 590 W/m² | - |
| 1778107897 | 27.78° C | 39% | 4301.2 hPa | 0 mm | - | 589 W/m² | - |
| 1778107594 | 27.22° C | 41% | 4301.2 hPa | 0 mm | - | 619 W/m² | - |
| 1778107290 | 27.78° C | 39% | 4301.2 hPa | 0 mm | - | 639 W/m² | - |
| 1778106987 | 26.11° C | 42% | 4301.3 hPa | 0 mm | - | 650 W/m² | - |
| 1778106682 | 26.11° C | 43% | 4301.3 hPa | 0 mm | - | 652 W/m² | - |
| 1778106380 | 28.33° C | 40% | 4301.5 hPa | 0 mm | - | 631 W/m² | - |
| 1778106076 | 27.78° C | 39% | 4301.3 hPa | 0 mm | - | 665 W/m² | - |
| 1778105774 | 27.22° C | 41% | 4301.8 hPa | 0 mm | - | 679 W/m² | - |
| 1778105472 | 27.78° C | 41% | 4301.7 hPa | 0 mm | - | 701 W/m² | - |
| 1778105168 | 28.33° C | 41% | 4301.8 hPa | 0 mm | - | 693 W/m² | - |
| 1778104863 | 28.33° C | 40% | 4302 hPa | 0 mm | - | 639 W/m² | - |
| 1778104560 | 27.22° C | 39% | 4302 hPa | 0 mm | - | 654 W/m² | - |
* Rain latest hour (hover to see other rain measurements)
** Current wind speed in m/s (hover to see current wind gust speed)